createdAt,value
2019-01-09T00:00:14.823Z,-4.08
2019-01-09T00:03:46.579Z,-4
2019-01-09T00:07:16.578Z,-4.13
2019-01-09T00:10:46.565Z,-4.05
2019-01-09T00:14:16.611Z,-4.06
2019-01-09T00:17:46.839Z,-4.19
2019-01-09T00:21:16.855Z,-4.18
2019-01-09T00:24:47.014Z,-4.22
2019-01-09T00:28:17.063Z,-4.26
2019-01-09T00:31:47.097Z,-4.31
2019-01-09T00:35:17.095Z,-4.21
2019-01-09T00:38:47.245Z,-4.16
2019-01-09T00:42:17.289Z,-4.16
2019-01-09T00:45:47.386Z,-4.2
2019-01-09T00:49:17.493Z,-4.12
2019-01-09T00:52:47.504Z,-4.1
2019-01-09T00:56:17.598Z,-4.17
2019-01-09T00:59:47.758Z,-4.22
2019-01-09T01:11:07.526Z,-4.2
2019-01-09T01:15:35.173Z,-4.2
2019-01-09T01:21:31.868Z,-4.24
2019-01-09T01:25:29.654Z,-4.24
2019-01-09T01:29:42.532Z,-4.21
2019-01-09T01:33:35.758Z,-4.18
2019-01-09T01:37:33.255Z,-4.18
2019-01-09T01:41:12.912Z,-4.09
2019-01-09T01:44:53.839Z,-4.05
2019-01-09T01:48:39.411Z,-4.06
2019-01-09T01:52:54.873Z,-3.98
2019-01-09T01:56:34.280Z,-3.98
2019-01-09T02:00:26.027Z,-3.93
2019-01-09T02:10:03.040Z,-3.9
2019-01-09T02:13:52.146Z,-3.92
2019-01-09T02:18:47.810Z,-3.89
2019-01-09T02:23:02.029Z,-3.79
2019-01-09T02:27:45.546Z,-3.73
2019-01-09T02:31:26.753Z,-3.59
2019-01-09T02:34:57.022Z,-3.63
2019-01-09T02:38:28.146Z,-3.51
2019-01-09T02:41:58.228Z,-3.47
2019-01-09T02:45:28.283Z,-3.39
2019-01-09T02:48:58.409Z,-3.31
2019-01-09T02:52:28.477Z,-3.39
2019-01-09T02:55:58.451Z,-3.35
2019-01-09T02:59:28.581Z,-3.4
2019-01-09T03:02:58.682Z,-3.43
2019-01-09T03:06:28.965Z,-3.37
2019-01-09T03:09:59.082Z,-3.34
2019-01-09T03:13:29.170Z,-3.4
2019-01-09T03:16:59.390Z,-3.39
2019-01-09T03:20:29.484Z,-3.41
2019-01-09T03:23:59.533Z,-3.49
2019-01-09T03:27:29.628Z,-3.42
2019-01-09T03:30:59.811Z,-3.5
2019-01-09T03:34:29.853Z,-3.53
2019-01-09T03:37:59.951Z,-3.52
2019-01-09T03:41:30.027Z,-3.39
2019-01-09T03:45:00.163Z,-3.4
2019-01-09T03:48:30.173Z,-3.47
2019-01-09T03:52:00.271Z,-3.36
2019-01-09T03:55:30.339Z,-3.3
2019-01-09T03:59:00.364Z,-3.27
2019-01-09T04:00:14.813Z,-3.27
2019-01-09T04:03:44.855Z,-3.29
2019-01-09T04:07:15.907Z,-3.32
2019-01-09T04:10:45.956Z,-3.28
2019-01-09T04:14:15.986Z,-3.29
2019-01-09T04:17:45.995Z,-3.29
2019-01-09T04:21:15.949Z,-3.23
2019-01-09T04:24:45.904Z,-3.1
2019-01-09T04:28:15.983Z,-2.95
2019-01-09T04:31:46.088Z,-3.03
2019-01-09T04:35:16.227Z,-2.95
2019-01-09T04:38:46.253Z,-2.86
2019-01-09T04:42:16.690Z,-2.93
2019-01-09T04:45:46.791Z,-2.97
2019-01-09T04:49:16.955Z,-2.88
2019-01-09T04:52:46.902Z,-2.86
2019-01-09T04:56:16.940Z,-2.88
2019-01-09T04:59:46.886Z,-2.85
2019-01-09T05:03:17.044Z,-2.86
2019-01-09T05:06:47.022Z,-2.89
2019-01-09T05:10:18.128Z,-2.88
2019-01-09T05:13:48.225Z,-2.83
2019-01-09T05:17:18.312Z,-2.84
2019-01-09T05:20:48.331Z,-2.9
2019-01-09T05:24:18.347Z,-2.89
2019-01-09T05:27:48.366Z,-2.91
2019-01-09T05:31:18.393Z,-2.92
2019-01-09T05:34:48.394Z,-2.9
2019-01-09T05:38:18.417Z,-2.83
2019-01-09T05:41:48.321Z,-2.76
2019-01-09T05:45:18.352Z,-2.74
2019-01-09T05:48:48.362Z,-2.7
2019-01-09T05:52:18.476Z,-2.69
2019-01-09T05:55:48.571Z,-2.68
2019-01-09T05:59:18.620Z,-2.57
2019-01-09T06:00:14.219Z,-2.5
2019-01-09T06:03:44.157Z,-2.52
2019-01-09T06:07:18.654Z,-2.51
2019-01-09T06:10:49.101Z,-2.55
2019-01-09T06:14:19.159Z,-2.42
2019-01-09T06:17:49.284Z,-2.41
2019-01-09T06:21:19.384Z,-2.31
2019-01-09T06:24:49.401Z,-2.13
2019-01-09T06:28:19.549Z,-1.93
2019-01-09T06:31:49.566Z,-2.03
2019-01-09T06:35:19.773Z,-1.9
2019-01-09T06:38:49.780Z,-1.83
2019-01-09T06:42:19.918Z,-1.72
2019-01-09T06:45:49.995Z,-1.64
2019-01-09T06:49:20.163Z,-1.65
2019-01-09T06:52:50.229Z,-1.41
2019-01-09T06:56:20.277Z,-1.47
2019-01-09T06:59:50.284Z,-1.47
2019-01-09T07:03:20.336Z,-1.49
2019-01-09T07:06:50.358Z,-1.51
2019-01-09T07:10:20.436Z,-1.55
2019-01-09T07:13:51.343Z,-1.33
2019-01-09T07:17:21.440Z,-1.44
2019-01-09T07:20:51.512Z,-1.44
2019-01-09T07:24:21.545Z,-1.35
2019-01-09T07:27:51.563Z,-1.41
2019-01-09T07:31:21.710Z,-1.27
2019-01-09T07:34:51.737Z,-1.17
2019-01-09T07:38:21.805Z,-1.17
2019-01-09T07:41:51.902Z,-1.07
2019-01-09T07:45:21.907Z,-0.88
2019-01-09T07:48:51.957Z,-0.84
2019-01-09T07:52:22.085Z,-0.63
2019-01-09T07:55:52.111Z,-0.59
2019-01-09T07:59:22.261Z,-0.5
2019-01-09T08:00:14.318Z,-0.47
2019-01-09T08:03:44.445Z,-0.64
2019-01-09T08:07:14.425Z,-0.56
2019-01-09T08:10:44.468Z,-0.65
2019-01-09T08:14:15.564Z,-0.69
2019-01-09T08:17:45.516Z,-0.75
2019-01-09T08:21:15.632Z,-0.65
2019-01-09T08:24:45.620Z,-0.52
2019-01-09T08:28:15.747Z,-0.61
2019-01-09T08:31:45.815Z,-0.38
2019-01-09T08:35:15.943Z,-0.13
2019-01-09T08:38:45.909Z,-0.03
2019-01-09T08:42:15.967Z,0.04
2019-01-09T08:45:46.030Z,0.12
2019-01-09T08:49:16.039Z,0.2
2019-01-09T08:52:46.019Z,0.14
2019-01-09T08:56:16.045Z,0.2
2019-01-09T08:59:46.234Z,0.35
2019-01-09T09:03:16.283Z,0.23
2019-01-09T09:06:46.366Z,0.32
2019-01-09T09:10:16.437Z,0.3
2019-01-09T09:13:46.503Z,0.39
2019-01-09T09:17:16.901Z,0.45
2019-01-09T09:20:46.851Z,0.54
2019-01-09T09:24:16.957Z,0.5
2019-01-09T09:27:46.973Z,0.55
2019-01-09T09:31:17.080Z,0.49
2019-01-09T09:34:47.118Z,0.67
2019-01-09T09:38:20.703Z,0.94
2019-01-09T09:41:51.264Z,1.17
2019-01-09T09:45:21.390Z,1.44
2019-01-09T09:48:51.438Z,1.49
2019-01-09T09:52:21.531Z,1.58
2019-01-09T09:55:51.529Z,1.68
2019-01-09T09:59:21.577Z,1.88
2019-01-09T10:00:17.236Z,1.93
2019-01-09T10:03:47.218Z,2.03
2019-01-09T10:07:17.245Z,2.25
2019-01-09T10:10:47.313Z,2.27
2019-01-09T10:14:17.480Z,2.21
2019-01-09T10:17:48.468Z,2.25
2019-01-09T10:21:18.535Z,2.21
2019-01-09T10:24:48.621Z,2.21
2019-01-09T10:28:18.743Z,2.18
2019-01-09T10:31:48.740Z,2.52
2019-01-09T10:35:18.860Z,2.63
2019-01-09T10:38:48.943Z,2.72
2019-01-09T10:42:19.000Z,2.66
2019-01-09T10:45:49.068Z,3.01
2019-01-09T10:49:19.146Z,3.09
2019-01-09T10:52:49.223Z,3.5
2019-01-09T10:56:19.261Z,3.85
2019-01-09T10:59:49.278Z,4.23
2019-01-09T11:03:19.425Z,4.7
2019-01-09T11:06:49.573Z,4.97
2019-01-09T11:10:19.791Z,4.97
2019-01-09T11:13:49.798Z,5.3
2019-01-09T11:17:19.886Z,5.22
2019-01-09T11:20:50.873Z,4.64
2019-01-09T11:24:20.871Z,4.39
2019-01-09T11:27:50.929Z,4.25
2019-01-09T11:31:21.017Z,4.15
2019-01-09T11:34:50.985Z,4.01
2019-01-09T11:38:20.993Z,4
2019-01-09T11:41:50.919Z,4
2019-01-09T11:45:21.171Z,3.78
2019-01-09T11:48:51.475Z,3.92
2019-01-09T11:52:21.482Z,4.1
2019-01-09T11:55:51.513Z,4.16
2019-01-09T11:59:21.518Z,4.13
2019-01-09T12:00:18.357Z,4.23
2019-01-09T12:03:48.414Z,4.38
2019-01-09T12:07:18.453Z,4.56
2019-01-09T12:10:48.496Z,4.84
2019-01-09T12:14:18.618Z,5.08
2019-01-09T12:17:48.656Z,5.2
2019-01-09T12:21:19.603Z,5.47
2019-01-09T12:24:49.591Z,5.54
2019-01-09T12:28:19.663Z,5.48
2019-01-09T12:31:49.796Z,5.48
2019-01-09T12:35:19.929Z,5.43
2019-01-09T12:38:49.912Z,5.36
2019-01-09T12:42:19.982Z,5.59
2019-01-09T12:45:49.980Z,5.53
2019-01-09T12:49:20.165Z,5.65
2019-01-09T12:52:50.182Z,5.57
2019-01-09T12:56:20.270Z,5.3
2019-01-09T12:59:50.378Z,5.24
2019-01-09T13:03:20.425Z,5.23
2019-01-09T13:06:50.515Z,5.16
2019-01-09T13:10:20.641Z,5.18
2019-01-09T13:13:50.489Z,5.07
2019-01-09T13:17:20.506Z,4.98
2019-01-09T13:20:50.664Z,4.88
2019-01-09T13:24:21.661Z,4.77
2019-01-09T13:27:51.848Z,4.76
2019-01-09T13:31:21.927Z,4.81
2019-01-09T13:34:52.008Z,4.83
2019-01-09T13:38:22.042Z,5.03
2019-01-09T13:41:52.021Z,5.13
2019-01-09T13:45:22.127Z,5.11
2019-01-09T13:48:52.161Z,4.99
2019-01-09T13:52:22.422Z,4.85
2019-01-09T13:55:52.400Z,4.7
2019-01-09T13:59:22.438Z,4.61
2019-01-09T14:00:16.198Z,4.62
2019-01-09T14:03:46.256Z,4.47
2019-01-09T14:07:16.443Z,4.34
2019-01-09T14:10:46.571Z,4.3
2019-01-09T14:14:16.650Z,4.15
2019-01-09T14:17:46.878Z,4.03
2019-01-09T14:21:16.993Z,3.96
2019-01-09T14:24:48.013Z,3.87
2019-01-09T14:28:18.380Z,3.66
2019-01-09T14:31:48.406Z,3.76
2019-01-09T14:35:18.513Z,3.72
2019-01-09T14:38:48.615Z,3.74
2019-01-09T14:42:18.673Z,3.66
2019-01-09T14:45:49.386Z,3.68
2019-01-09T14:49:20.745Z,3.74
2019-01-09T14:52:50.860Z,3.73
2019-01-09T14:56:21.020Z,3.6
2019-01-09T14:59:51.068Z,3.63
2019-01-09T15:03:21.225Z,3.69
2019-01-09T15:06:51.321Z,3.69
2019-01-09T15:10:23.900Z,3.73
2019-01-09T15:13:54.048Z,3.72
2019-01-09T15:17:24.105Z,3.72
2019-01-09T15:20:54.283Z,3.71
2019-01-09T15:24:24.269Z,3.75
2019-01-09T15:27:54.419Z,3.73
2019-01-09T15:31:24.515Z,3.61
2019-01-09T15:34:54.484Z,3.56
2019-01-09T15:38:24.606Z,3.55
2019-01-09T15:41:54.662Z,3.52
2019-01-09T15:45:25.098Z,3.38
2019-01-09T15:48:58.726Z,3.36
2019-01-09T15:52:28.904Z,3.41
2019-01-09T15:55:58.939Z,3.46
2019-01-09T15:59:28.992Z,3.41
2019-01-09T16:00:18.196Z,3.39
2019-01-09T16:03:48.364Z,3.35
2019-01-09T16:07:18.402Z,3.36
2019-01-09T16:10:48.460Z,3.32
2019-01-09T16:14:18.527Z,3.16
2019-01-09T16:17:48.685Z,3.14
2019-01-09T16:21:18.762Z,3.09
2019-01-09T16:24:49.000Z,3.11
2019-01-09T16:28:19.974Z,3.17
2019-01-09T16:31:50.025Z,3.23
2019-01-09T16:35:20.743Z,3.24
2019-01-09T16:38:50.840Z,3.19
2019-01-09T16:42:20.950Z,3.08
2019-01-09T16:45:50.985Z,3.14
2019-01-09T16:49:27.890Z,3.22
2019-01-09T16:52:58.480Z,3.27
2019-01-09T16:56:28.918Z,3.41
2019-01-09T16:59:59.006Z,3.61
2019-01-09T17:03:29.085Z,3.78
2019-01-09T17:06:59.091Z,3.87
2019-01-09T17:10:32.535Z,3.94
2019-01-09T17:14:03.086Z,4.02
2019-01-09T17:17:33.144Z,4.11
2019-01-09T17:21:03.475Z,4.19
2019-01-09T17:24:33.773Z,4.27
2019-01-09T17:28:04.814Z,4.31
2019-01-09T17:31:35.795Z,4.32
2019-01-09T17:35:06.108Z,4.39
2019-01-09T17:38:36.182Z,4.43
2019-01-09T17:42:06.227Z,4.48
2019-01-09T17:45:36.274Z,4.53
2019-01-09T17:49:06.492Z,4.48
2019-01-09T17:52:36.560Z,4.44
2019-01-09T17:56:06.608Z,4.48
2019-01-09T17:59:36.710Z,4.51
2019-01-09T18:00:17.235Z,4.49
2019-01-09T18:03:47.169Z,4.48
2019-01-09T18:07:17.310Z,4.51
2019-01-09T18:10:50.366Z,4.43
2019-01-09T18:14:20.745Z,4.38
2019-01-09T18:17:51.224Z,4.32
2019-01-09T18:21:21.240Z,4.34
2019-01-09T18:24:51.348Z,4.37
2019-01-09T18:28:21.429Z,4.27
2019-01-09T18:32:22.683Z,4.26
2019-01-09T18:36:02.233Z,4.21
2019-01-09T18:39:46.339Z,4.2
2019-01-09T18:45:58.804Z,4.15
2019-01-09T18:50:19.781Z,4.18
2019-01-09T18:53:51.439Z,4.19
2019-01-09T18:57:21.516Z,4.26
2019-01-09T19:00:51.695Z,4.35
2019-01-09T19:04:21.782Z,4.38
2019-01-09T19:07:51.889Z,4.31
2019-01-09T19:11:21.946Z,4.24
2019-01-09T19:14:52.301Z,4.18
2019-01-09T19:18:22.372Z,4.11
2019-01-09T19:21:52.450Z,4.13
2019-01-09T19:25:22.650Z,4.11
2019-01-09T19:28:52.655Z,4.05
2019-01-09T19:32:23.693Z,4.04
2019-01-09T19:35:53.950Z,4
2019-01-09T19:39:24.177Z,4.02
2019-01-09T19:42:54.245Z,4.04
2019-01-09T19:46:24.292Z,4.04
2019-01-09T19:49:54.384Z,4.02
2019-01-09T19:53:24.438Z,4.07
2019-01-09T19:56:54.497Z,4.1
2019-01-09T20:00:16.354Z,4.1
2019-01-09T20:03:46.474Z,4.07
2019-01-09T20:07:16.608Z,4.13
2019-01-09T20:10:46.779Z,4.15
2019-01-09T20:14:16.900Z,4.11
2019-01-09T20:17:47.099Z,4.12
2019-01-09T20:21:17.117Z,4.18
2019-01-09T20:24:47.816Z,4.18
2019-01-09T20:28:17.834Z,4.2
2019-01-09T20:31:48.057Z,4.24
2019-01-09T20:35:19.110Z,4.27
2019-01-09T20:38:49.186Z,4.27
2019-01-09T20:42:19.294Z,4.32
2019-01-09T20:45:49.377Z,4.37
2019-01-09T20:49:19.409Z,4.44
2019-01-09T20:52:49.463Z,4.55
2019-01-09T20:56:19.635Z,4.58
2019-01-09T20:59:50.513Z,4.64
2019-01-09T21:03:20.580Z,4.7
2019-01-09T21:06:50.868Z,4.81
2019-01-09T21:10:20.936Z,4.84
2019-01-09T21:13:51.095Z,4.86
2019-01-09T21:17:21.164Z,4.93
2019-01-09T21:20:51.408Z,4.91
2019-01-09T21:24:21.436Z,4.97
2019-01-09T21:27:51.553Z,4.98
2019-01-09T21:31:21.701Z,5.01
2019-01-09T21:34:51.828Z,5.09
2019-01-09T21:38:22.066Z,5.13
2019-01-09T21:41:53.465Z,5.21
2019-01-09T21:45:23.777Z,5.19
2019-01-09T21:48:54.059Z,5.26
2019-01-09T21:52:24.187Z,5.31
2019-01-09T21:55:54.334Z,5.36
2019-01-09T21:59:24.413Z,5.44
2019-01-09T22:00:16.831Z,5.46
2019-01-09T22:03:46.829Z,5.51
2019-01-09T22:07:16.877Z,5.61
2019-01-09T22:10:47.175Z,5.64
2019-01-09T22:14:17.311Z,5.7
2019-01-09T22:17:47.420Z,5.79
2019-01-09T22:21:17.447Z,5.84
2019-01-09T22:24:47.545Z,5.86
2019-01-09T22:28:17.633Z,5.93
2019-01-09T22:31:47.721Z,5.95
2019-01-09T22:35:18.018Z,5.94
2019-01-09T22:38:49.077Z,5.98
2019-01-09T22:42:20.119Z,6.02
2019-01-09T22:45:50.266Z,6
2019-01-09T22:49:20.321Z,6.05
2019-01-09T22:52:50.527Z,6.1
2019-01-09T22:56:20.504Z,6.09
2019-01-09T22:59:50.651Z,6.1
2019-01-09T23:03:20.902Z,6.14
2019-01-09T23:06:51.085Z,6.15
2019-01-09T23:10:21.225Z,6.17
2019-01-09T23:13:51.665Z,6.18
2019-01-09T23:17:21.693Z,6.21
2019-01-09T23:20:51.837Z,6.25
2019-01-09T23:24:21.915Z,6.27
2019-01-09T23:27:52.132Z,6.18
2019-01-09T23:31:22.271Z,6.19
2019-01-09T23:34:52.459Z,6.14
2019-01-09T23:38:22.518Z,6.15
2019-01-09T23:41:53.731Z,6.21
2019-01-09T23:45:23.902Z,6.22
2019-01-09T23:48:54.089Z,6.28
2019-01-09T23:52:24.137Z,6.23
2019-01-09T23:55:54.315Z,6.25
2019-01-09T23:59:24.383Z,6.3
